Hlavní strana
METAR-TAF:

METAR-TAF

Letiště :

Čeboksary, Rusko

zeměpisná šířka: 56-05-24N, zeměpisná délka: 047-20-50E, výška: 171 m

Aktuální stav počasí

Zpráva byla vytvořena před 15 minutami, v 13:00 UTC
Jihojihovýchodní vítr 6 kt
Teplota -2°C
Vlhkost vzduchu 93%
Tlak 1014 hPa
Viditelnost 10 km a více
Zataženo ve výšce 700 ft

METAR: UWKS 251300Z 15003MPS 9999 OVC007 M02/M03 Q1014 R06/650245 NOSIG RMK QFE745

Čas: 16:15 (13:15 UTC)

Předpověď počasí

Zpráva byla vytvořena před 2 hodinami a 18 minutami, v 10:57 UTC
Předpověď platná od 25 v 12 UTC do 25 v 21 UTC
Jihojihovýchodní vítr 6 kt
Viditelnost: 8000 m
Oblačno až skoro zataženo ve výšce 1100 ft
slabé sněžení
Dočasný
od 25 v 13 UTC do 25 v 21 UTC
Viditelnost: 0500 m
ve výšce 200 ft
mrznoucí mlha

TAF: UWKS 251057Z 2512/2521 15003MPS 8000 -SN BKN011 TXM01/2512Z TNM02/2521Z TEMPO 2513/2521 0500 FZFG VV002

Stav a předpovědi počasí z více než 4 000 letišť (zprávy METAR a TAF).

Červené a žluté tečky na mapě představují dostupné meteorologické stanice.

Když kurzor umístíte na tečku, zobrazí se název stanice.

Pak kliknutím zobrazíte stav a předpověď počasí.

Chcete-li změnit mapu, kliknutím na zelené tlačítko se znaménkem +mapu přiblížíte, kliknutím na zelené tlačítko se znaménkem – mapu oddálíte a kliknutím na zelené šipky přejdete na sousední mapy.


METAR-TAF: